sensor_id;sensor_type;location;lat;lon;timestamp;P1;durP1;ratioP1;P2;durP2;ratioP2
20721;SDS011;10522;52.198;9.890;2023-11-21T00:00:44;25.40;;;10.83;;
20721;SDS011;10522;52.198;9.890;2023-11-21T00:03:10;21.83;;;10.07;;
20721;SDS011;10522;52.198;9.890;2023-11-21T00:05:39;22.70;;;12.27;;
20721;SDS011;10522;52.198;9.890;2023-11-21T00:08:06;19.17;;;10.80;;
20721;SDS011;10522;52.198;9.890;2023-11-21T00:10:32;23.43;;;11.77;;
20721;SDS011;10522;52.198;9.890;2023-11-21T00:12:59;22.50;;;11.57;;
20721;SDS011;10522;52.198;9.890;2023-11-21T00:15:24;27.27;;;11.30;;
20721;SDS011;10522;52.198;9.890;2023-11-21T00:17:51;21.17;;;11.20;;
20721;SDS011;10522;52.198;9.890;2023-11-21T00:20:17;25.80;;;12.13;;
20721;SDS011;10522;52.198;9.890;2023-11-21T00:22:42;22.13;;;10.93;;
20721;SDS011;10522;52.198;9.890;2023-11-21T00:25:08;20.40;;;10.23;;
20721;SDS011;10522;52.198;9.890;2023-11-21T00:27:34;23.63;;;10.40;;
20721;SDS011;10522;52.198;9.890;2023-11-21T00:30:00;21.90;;;9.87;;
20721;SDS011;10522;52.198;9.890;2023-11-21T00:32:26;23.30;;;11.20;;
20721;SDS011;10522;52.198;9.890;2023-11-21T00:34:52;25.03;;;11.23;;
20721;SDS011;10522;52.198;9.890;2023-11-21T00:37:17;27.50;;;12.40;;
20721;SDS011;10522;52.198;9.890;2023-11-21T00:39:43;25.27;;;11.60;;
20721;SDS011;10522;52.198;9.890;2023-11-21T00:42:08;31.00;;;11.90;;
20721;SDS011;10522;52.198;9.890;2023-11-21T00:44:37;22.77;;;11.30;;
20721;SDS011;10522;52.198;9.890;2023-11-21T00:47:04;22.53;;;11.17;;
20721;SDS011;10522;52.198;9.890;2023-11-21T00:49:29;29.77;;;11.03;;
20721;SDS011;10522;52.198;9.890;2023-11-21T00:51:55;25.43;;;12.27;;
20721;SDS011;10522;52.198;9.890;2023-11-21T00:54:22;19.83;;;11.00;;
20721;SDS011;10522;52.198;9.890;2023-11-21T00:56:48;32.57;;;12.00;;
20721;SDS011;10522;52.198;9.890;2023-11-21T00:59:14;22.57;;;11.00;;
20721;SDS011;10522;52.198;9.890;2023-11-21T01:01:39;25.23;;;11.70;;
20721;SDS011;10522;52.198;9.890;2023-11-21T01:04:05;23.10;;;12.10;;
20721;SDS011;10522;52.198;9.890;2023-11-21T01:06:32;28.20;;;12.40;;
20721;SDS011;10522;52.198;9.890;2023-11-21T01:08:58;29.97;;;13.10;;
20721;SDS011;10522;52.198;9.890;2023-11-21T01:11:23;24.83;;;12.23;;
20721;SDS011;10522;52.198;9.890;2023-11-21T01:13:49;23.13;;;12.17;;
20721;SDS011;10522;52.198;9.890;2023-11-21T01:16:15;26.43;;;13.30;;
20721;SDS011;10522;52.198;9.890;2023-11-21T01:18:40;22.07;;;11.97;;
20721;SDS011;10522;52.198;9.890;2023-11-21T01:21:06;24.57;;;13.10;;
20721;SDS011;10522;52.198;9.890;2023-11-21T01:23:32;21.93;;;11.43;;
20721;SDS011;10522;52.198;9.890;2023-11-21T01:25:58;24.10;;;11.20;;
20721;SDS011;10522;52.198;9.890;2023-11-21T01:28:23;21.17;;;11.20;;
20721;SDS011;10522;52.198;9.890;2023-11-21T01:30:49;25.80;;;13.50;;
20721;SDS011;10522;52.198;9.890;2023-11-21T01:33:15;27.77;;;11.70;;
20721;SDS011;10522;52.198;9.890;2023-11-21T01:35:41;21.23;;;11.13;;
20721;SDS011;10522;52.198;9.890;2023-11-21T01:38:07;24.87;;;11.27;;
20721;SDS011;10522;52.198;9.890;2023-11-21T01:40:33;23.53;;;11.63;;
20721;SDS011;10522;52.198;9.890;2023-11-21T01:42:59;23.07;;;11.63;;
20721;SDS011;10522;52.198;9.890;2023-11-21T01:45:25;25.53;;;12.00;;
20721;SDS011;10522;52.198;9.890;2023-11-21T01:47:51;28.33;;;13.63;;
20721;SDS011;10522;52.198;9.890;2023-11-21T01:50:17;32.33;;;13.17;;
20721;SDS011;10522;52.198;9.890;2023-11-21T01:52:44;28.47;;;13.13;;
20721;SDS011;10522;52.198;9.890;2023-11-21T01:55:11;21.57;;;12.70;;
20721;SDS011;10522;52.198;9.890;2023-11-21T01:57:39;26.50;;;12.77;;
20721;SDS011;10522;52.198;9.890;2023-11-21T02:00:05;23.50;;;12.23;;
20721;SDS011;10522;52.198;9.890;2023-11-21T02:02:43;24.87;;;12.47;;
20721;SDS011;10522;52.198;9.890;2023-11-21T02:05:10;27.83;;;12.67;;
20721;SDS011;10522;52.198;9.890;2023-11-21T02:07:43;23.67;;;13.20;;
20721;SDS011;10522;52.198;9.890;2023-11-21T02:10:12;22.97;;;12.47;;
20721;SDS011;10522;52.198;9.890;2023-11-21T02:12:43;28.13;;;13.83;;
20721;SDS011;10522;52.198;9.890;2023-11-21T02:15:12;34.60;;;13.87;;
20721;SDS011;10522;52.198;9.890;2023-11-21T02:17:45;25.80;;;13.33;;
20721;SDS011;10522;52.198;9.890;2023-11-21T02:20:16;31.73;;;14.03;;
20721;SDS011;10522;52.198;9.890;2023-11-21T02:22:43;27.30;;;13.67;;
20721;SDS011;10522;52.198;9.890;2023-11-21T02:25:14;28.27;;;13.57;;
20721;SDS011;10522;52.198;9.890;2023-11-21T02:27:39;31.87;;;16.07;;
20721;SDS011;10522;52.198;9.890;2023-11-21T02:30:05;25.37;;;12.77;;
20721;SDS011;10522;52.198;9.890;2023-11-21T02:32:32;25.20;;;13.70;;
20721;SDS011;10522;52.198;9.890;2023-11-21T02:34:59;24.33;;;12.17;;
20721;SDS011;10522;52.198;9.890;2023-11-21T02:37:28;27.50;;;12.53;;
20721;SDS011;10522;52.198;9.890;2023-11-21T02:39:53;26.63;;;12.33;;
20721;SDS011;10522;52.198;9.890;2023-11-21T02:42:19;26.33;;;12.70;;
20721;SDS011;10522;52.198;9.890;2023-11-21T02:44:44;28.07;;;13.63;;
20721;SDS011;10522;52.198;9.890;2023-11-21T02:47:10;23.73;;;13.67;;
20721;SDS011;10522;52.198;9.890;2023-11-21T02:49:35;22.00;;;13.57;;
20721;SDS011;10522;52.198;9.890;2023-11-21T02:52:01;26.63;;;14.10;;
20721;SDS011;10522;52.198;9.890;2023-11-21T02:54:27;28.30;;;13.90;;
20721;SDS011;10522;52.198;9.890;2023-11-21T02:56:53;28.20;;;14.70;;
20721;SDS011;10522;52.198;9.890;2023-11-21T02:59:18;27.27;;;14.40;;
20721;SDS011;10522;52.198;9.890;2023-11-21T03:01:44;27.70;;;13.67;;
20721;SDS011;10522;52.198;9.890;2023-11-21T03:04:11;37.83;;;15.63;;
20721;SDS011;10522;52.198;9.890;2023-11-21T03:06:42;31.00;;;16.63;;
20721;SDS011;10522;52.198;9.890;2023-11-21T03:09:08;31.33;;;15.40;;
20721;SDS011;10522;52.198;9.890;2023-11-21T03:11:34;27.57;;;15.87;;
20721;SDS011;10522;52.198;9.890;2023-11-21T03:13:59;33.30;;;15.47;;
20721;SDS011;10522;52.198;9.890;2023-11-21T03:16:25;33.47;;;15.07;;
20721;SDS011;10522;52.198;9.890;2023-11-21T03:18:51;31.73;;;15.20;;
20721;SDS011;10522;52.198;9.890;2023-11-21T03:21:17;28.73;;;14.60;;
20721;SDS011;10522;52.198;9.890;2023-11-21T03:23:43;36.33;;;15.47;;
20721;SDS011;10522;52.198;9.890;2023-11-21T03:26:11;31.40;;;15.20;;
20721;SDS011;10522;52.198;9.890;2023-11-21T03:28:37;29.77;;;15.00;;
20721;SDS011;10522;52.198;9.890;2023-11-21T03:31:03;30.07;;;15.87;;
20721;SDS011;10522;52.198;9.890;2023-11-21T03:33:29;37.43;;;17.30;;
20721;SDS011;10522;52.198;9.890;2023-11-21T03:35:54;30.03;;;15.43;;
20721;SDS011;10522;52.198;9.890;2023-11-21T03:38:20;38.77;;;16.77;;
20721;SDS011;10522;52.198;9.890;2023-11-21T03:40:45;33.90;;;18.43;;
20721;SDS011;10522;52.198;9.890;2023-11-21T03:43:12;41.43;;;18.10;;
20721;SDS011;10522;52.198;9.890;2023-11-21T03:45:38;29.43;;;16.87;;
20721;SDS011;10522;52.198;9.890;2023-11-21T03:48:05;32.93;;;16.27;;
20721;SDS011;10522;52.198;9.890;2023-11-21T03:50:31;35.57;;;15.67;;
20721;SDS011;10522;52.198;9.890;2023-11-21T03:52:57;30.10;;;16.17;;
20721;SDS011;10522;52.198;9.890;2023-11-21T03:55:23;31.20;;;16.10;;
20721;SDS011;10522;52.198;9.890;2023-11-21T03:57:50;34.77;;;15.93;;
20721;SDS011;10522;52.198;9.890;2023-11-21T04:00:16;30.63;;;15.70;;
20721;SDS011;10522;52.198;9.890;2023-11-21T04:02:42;31.20;;;16.20;;
20721;SDS011;10522;52.198;9.890;2023-11-21T04:05:08;33.10;;;17.10;;
20721;SDS011;10522;52.198;9.890;2023-11-21T04:07:34;29.57;;;15.83;;
20721;SDS011;10522;52.198;9.890;2023-11-21T04:10:01;31.23;;;15.67;;
20721;SDS011;10522;52.198;9.890;2023-11-21T04:12:27;31.40;;;15.20;;
20721;SDS011;10522;52.198;9.890;2023-11-21T04:14:52;34.83;;;15.63;;
20721;SDS011;10522;52.198;9.890;2023-11-21T04:17:18;31.10;;;15.97;;
20721;SDS011;10522;52.198;9.890;2023-11-21T04:19:44;32.43;;;17.17;;
20721;SDS011;10522;52.198;9.890;2023-11-21T04:22:11;30.87;;;15.00;;
20721;SDS011;10522;52.198;9.890;2023-11-21T04:24:36;28.73;;;14.80;;
20721;SDS011;10522;52.198;9.890;2023-11-21T04:27:02;28.77;;;14.67;;
20721;SDS011;10522;52.198;9.890;2023-11-21T04:29:28;29.97;;;14.90;;
20721;SDS011;10522;52.198;9.890;2023-11-21T04:31:53;30.20;;;16.07;;
20721;SDS011;10522;52.198;9.890;2023-11-21T04:34:19;34.70;;;15.70;;
20721;SDS011;10522;52.198;9.890;2023-11-21T04:36:45;31.73;;;15.53;;
20721;SDS011;10522;52.198;9.890;2023-11-21T04:39:11;35.17;;;16.63;;
20721;SDS011;10522;52.198;9.890;2023-11-21T04:41:37;31.23;;;16.83;;
20721;SDS011;10522;52.198;9.890;2023-11-21T04:44:04;32.67;;;16.40;;
20721;SDS011;10522;52.198;9.890;2023-11-21T04:46:30;34.57;;;16.67;;
20721;SDS011;10522;52.198;9.890;2023-11-21T04:48:57;35.73;;;17.67;;
20721;SDS011;10522;52.198;9.890;2023-11-21T04:51:23;32.80;;;16.63;;
20721;SDS011;10522;52.198;9.890;2023-11-21T04:53:48;36.10;;;17.27;;
20721;SDS011;10522;52.198;9.890;2023-11-21T04:56:14;31.23;;;15.73;;
20721;SDS011;10522;52.198;9.890;2023-11-21T04:58:41;33.97;;;16.67;;
20721;SDS011;10522;52.198;9.890;2023-11-21T05:01:07;35.90;;;18.43;;
20721;SDS011;10522;52.198;9.890;2023-11-21T05:03:33;37.20;;;18.10;;
20721;SDS011;10522;52.198;9.890;2023-11-21T05:06:02;34.50;;;16.27;;
20721;SDS011;10522;52.198;9.890;2023-11-21T05:08:30;33.33;;;15.17;;
20721;SDS011;10522;52.198;9.890;2023-11-21T05:10:56;35.57;;;18.17;;
20721;SDS011;10522;52.198;9.890;2023-11-21T05:13:22;32.47;;;17.13;;
20721;SDS011;10522;52.198;9.890;2023-11-21T05:15:52;38.17;;;16.47;;
20721;SDS011;10522;52.198;9.890;2023-11-21T05:18:19;36.73;;;15.97;;
20721;SDS011;10522;52.198;9.890;2023-11-21T05:20:44;37.17;;;18.67;;
20721;SDS011;10522;52.198;9.890;2023-11-21T05:23:10;36.73;;;17.17;;
20721;SDS011;10522;52.198;9.890;2023-11-21T05:25:36;37.53;;;16.77;;
20721;SDS011;10522;52.198;9.890;2023-11-21T05:28:01;32.07;;;17.07;;
20721;SDS011;10522;52.198;9.890;2023-11-21T05:30:28;37.93;;;18.47;;
20721;SDS011;10522;52.198;9.890;2023-11-21T05:32:53;32.70;;;17.20;;
20721;SDS011;10522;52.198;9.890;2023-11-21T05:35:19;41.20;;;18.33;;
20721;SDS011;10522;52.198;9.890;2023-11-21T05:37:46;38.43;;;17.30;;
20721;SDS011;10522;52.198;9.890;2023-11-21T05:40:11;33.40;;;16.80;;
20721;SDS011;10522;52.198;9.890;2023-11-21T05:42:38;35.87;;;18.40;;
20721;SDS011;10522;52.198;9.890;2023-11-21T05:45:04;35.00;;;17.73;;
20721;SDS011;10522;52.198;9.890;2023-11-21T05:47:45;37.83;;;18.37;;
20721;SDS011;10522;52.198;9.890;2023-11-21T05:50:12;37.00;;;17.27;;
20721;SDS011;10522;52.198;9.890;2023-11-21T05:52:40;37.10;;;18.70;;
20721;SDS011;10522;52.198;9.890;2023-11-21T05:55:08;38.30;;;16.90;;
20721;SDS011;10522;52.198;9.890;2023-11-21T05:57:34;39.63;;;18.53;;
20721;SDS011;10522;52.198;9.890;2023-11-21T06:00:02;34.03;;;17.73;;
20721;SDS011;10522;52.198;9.890;2023-11-21T06:02:45;44.83;;;19.17;;
20721;SDS011;10522;52.198;9.890;2023-11-21T06:05:12;41.37;;;19.77;;
20721;SDS011;10522;52.198;9.890;2023-11-21T06:07:38;41.80;;;18.30;;
20721;SDS011;10522;52.198;9.890;2023-11-21T06:10:05;38.17;;;19.07;;
20721;SDS011;10522;52.198;9.890;2023-11-21T06:12:34;41.13;;;20.57;;
20721;SDS011;10522;52.198;9.890;2023-11-21T06:15:01;42.17;;;18.87;;
20721;SDS011;10522;52.198;9.890;2023-11-21T06:17:30;42.43;;;20.50;;
20721;SDS011;10522;52.198;9.890;2023-11-21T06:20:01;42.70;;;20.33;;
20721;SDS011;10522;52.198;9.890;2023-11-21T06:22:33;41.33;;;18.37;;
20721;SDS011;10522;52.198;9.890;2023-11-21T06:25:02;37.93;;;18.53;;
20721;SDS011;10522;52.198;9.890;2023-11-21T06:27:33;35.87;;;18.07;;
20721;SDS011;10522;52.198;9.890;2023-11-21T06:30:03;35.37;;;18.20;;
20721;SDS011;10522;52.198;9.890;2023-11-21T06:32:30;40.23;;;17.80;;
20721;SDS011;10522;52.198;9.890;2023-11-21T06:34:56;43.43;;;18.23;;
20721;SDS011;10522;52.198;9.890;2023-11-21T06:37:24;36.03;;;18.70;;
20721;SDS011;10522;52.198;9.890;2023-11-21T06:39:53;37.40;;;18.93;;
20721;SDS011;10522;52.198;9.890;2023-11-21T06:42:19;39.63;;;18.23;;
20721;SDS011;10522;52.198;9.890;2023-11-21T06:44:45;40.00;;;19.43;;
20721;SDS011;10522;52.198;9.890;2023-11-21T06:47:11;33.90;;;18.00;;
20721;SDS011;10522;52.198;9.890;2023-11-21T06:49:37;38.83;;;18.13;;
20721;SDS011;10522;52.198;9.890;2023-11-21T06:52:05;39.37;;;17.30;;
20721;SDS011;10522;52.198;9.890;2023-11-21T06:54:31;34.47;;;18.13;;
20721;SDS011;10522;52.198;9.890;2023-11-21T06:56:57;39.27;;;17.53;;
20721;SDS011;10522;52.198;9.890;2023-11-21T06:59:23;35.00;;;18.40;;
20721;SDS011;10522;52.198;9.890;2023-11-21T07:01:49;41.80;;;18.13;;
20721;SDS011;10522;52.198;9.890;2023-11-21T07:04:15;35.70;;;19.27;;
20721;SDS011;10522;52.198;9.890;2023-11-21T07:06:41;41.87;;;19.13;;
20721;SDS011;10522;52.198;9.890;2023-11-21T07:09:08;32.73;;;16.77;;
20721;SDS011;10522;52.198;9.890;2023-11-21T07:11:34;34.47;;;18.87;;
20721;SDS011;10522;52.198;9.890;2023-11-21T07:14:00;38.47;;;18.73;;
20721;SDS011;10522;52.198;9.890;2023-11-21T07:16:35;35.23;;;17.97;;
20721;SDS011;10522;52.198;9.890;2023-11-21T07:19:06;42.00;;;19.60;;
20721;SDS011;10522;52.198;9.890;2023-11-21T07:21:32;43.03;;;17.17;;
20721;SDS011;10522;52.198;9.890;2023-11-21T07:23:59;32.00;;;16.87;;
20721;SDS011;10522;52.198;9.890;2023-11-21T07:26:26;35.90;;;17.13;;
20721;SDS011;10522;52.198;9.890;2023-11-21T07:28:52;32.47;;;15.10;;
20721;SDS011;10522;52.198;9.890;2023-11-21T07:31:18;33.13;;;16.10;;
20721;SDS011;10522;52.198;9.890;2023-11-21T07:33:44;19.23;;;11.43;;
20721;SDS011;10522;52.198;9.890;2023-11-21T07:36:12;6.93;;;4.47;;
20721;SDS011;10522;52.198;9.890;2023-11-21T07:38:38;5.63;;;2.73;;
20721;SDS011;10522;52.198;9.890;2023-11-21T07:41:04;5.43;;;3.27;;
20721;SDS011;10522;52.198;9.890;2023-11-21T07:43:32;6.80;;;3.93;;
20721;SDS011;10522;52.198;9.890;2023-11-21T07:46:03;7.43;;;3.77;;
20721;SDS011;10522;52.198;9.890;2023-11-21T07:48:29;7.57;;;3.33;;
20721;SDS011;10522;52.198;9.890;2023-11-21T07:50:56;5.73;;;3.43;;
20721;SDS011;10522;52.198;9.890;2023-11-21T07:53:23;6.30;;;4.00;;
20721;SDS011;10522;52.198;9.890;2023-11-21T07:55:50;6.80;;;3.80;;
20721;SDS011;10522;52.198;9.890;2023-11-21T07:58:17;6.67;;;3.80;;
20721;SDS011;10522;52.198;9.890;2023-11-21T08:00:43;7.33;;;4.03;;
20721;SDS011;10522;52.198;9.890;2023-11-21T08:03:09;4.10;;;3.37;;
20721;SDS011;10522;52.198;9.890;2023-11-21T08:05:34;7.20;;;4.50;;
20721;SDS011;10522;52.198;9.890;2023-11-21T08:08:00;7.93;;;4.53;;
20721;SDS011;10522;52.198;9.890;2023-11-21T08:10:26;7.13;;;4.50;;
20721;SDS011;10522;52.198;9.890;2023-11-21T08:12:51;8.00;;;4.90;;
20721;SDS011;10522;52.198;9.890;2023-11-21T08:15:18;8.50;;;5.10;;
20721;SDS011;10522;52.198;9.890;2023-11-21T08:17:44;8.43;;;5.37;;
20721;SDS011;10522;52.198;9.890;2023-11-21T08:20:11;6.27;;;3.90;;
20721;SDS011;10522;52.198;9.890;2023-11-21T08:22:37;8.00;;;4.77;;
20721;SDS011;10522;52.198;9.890;2023-11-21T08:25:06;8.20;;;4.90;;
20721;SDS011;10522;52.198;9.890;2023-11-21T08:27:32;9.23;;;5.63;;
20721;SDS011;10522;52.198;9.890;2023-11-21T08:30:04;11.60;;;5.67;;
20721;SDS011;10522;52.198;9.890;2023-11-21T08:32:30;11.50;;;5.43;;
20721;SDS011;10522;52.198;9.890;2023-11-21T08:34:57;10.83;;;6.00;;
20721;SDS011;10522;52.198;9.890;2023-11-21T08:37:23;9.17;;;5.60;;
20721;SDS011;10522;52.198;9.890;2023-11-21T08:39:49;8.73;;;5.60;;
20721;SDS011;10522;52.198;9.890;2023-11-21T08:42:14;8.73;;;5.00;;
20721;SDS011;10522;52.198;9.890;2023-11-21T08:44:40;10.87;;;5.97;;
20721;SDS011;10522;52.198;9.890;2023-11-21T08:47:06;8.83;;;5.70;;
20721;SDS011;10522;52.198;9.890;2023-11-21T08:49:32;13.93;;;7.57;;
20721;SDS011;10522;52.198;9.890;2023-11-21T08:51:58;13.27;;;7.27;;
20721;SDS011;10522;52.198;9.890;2023-11-21T08:54:24;19.47;;;8.47;;
20721;SDS011;10522;52.198;9.890;2023-11-21T08:56:51;18.30;;;10.20;;
20721;SDS011;10522;52.198;9.890;2023-11-21T08:59:17;15.30;;;8.87;;
20721;SDS011;10522;52.198;9.890;2023-11-21T09:01:45;17.07;;;9.50;;
20721;SDS011;10522;52.198;9.890;2023-11-21T09:04:11;19.80;;;10.63;;
20721;SDS011;10522;52.198;9.890;2023-11-21T09:06:37;15.50;;;8.47;;
20721;SDS011;10522;52.198;9.890;2023-11-21T09:09:04;12.60;;;8.33;;
20721;SDS011;10522;52.198;9.890;2023-11-21T09:11:31;13.30;;;7.97;;
20721;SDS011;10522;52.198;9.890;2023-11-21T09:13:59;16.03;;;8.77;;
20721;SDS011;10522;52.198;9.890;2023-11-21T09:16:24;16.47;;;8.57;;
20721;SDS011;10522;52.198;9.890;2023-11-21T09:18:50;14.37;;;8.47;;
20721;SDS011;10522;52.198;9.890;2023-11-21T09:21:16;15.60;;;8.43;;
20721;SDS011;10522;52.198;9.890;2023-11-21T09:23:43;15.57;;;8.57;;
20721;SDS011;10522;52.198;9.890;2023-11-21T09:26:09;16.87;;;8.60;;
20721;SDS011;10522;52.198;9.890;2023-11-21T09:28:35;15.33;;;8.97;;
20721;SDS011;10522;52.198;9.890;2023-11-21T09:31:02;20.27;;;10.40;;
20721;SDS011;10522;52.198;9.890;2023-11-21T09:33:29;20.10;;;11.00;;
20721;SDS011;10522;52.198;9.890;2023-11-21T09:35:56;26.57;;;10.30;;
20721;SDS011;10522;52.198;9.890;2023-11-21T09:38:22;20.90;;;11.30;;
20721;SDS011;10522;52.198;9.890;2023-11-21T09:40:48;17.40;;;10.40;;
20721;SDS011;10522;52.198;9.890;2023-11-21T09:43:18;21.23;;;11.30;;
20721;SDS011;10522;52.198;9.890;2023-11-21T09:45:45;20.93;;;11.00;;
20721;SDS011;10522;52.198;9.890;2023-11-21T09:48:13;18.60;;;11.27;;
20721;SDS011;10522;52.198;9.890;2023-11-21T09:50:41;19.47;;;10.53;;
20721;SDS011;10522;52.198;9.890;2023-11-21T09:53:13;19.87;;;9.87;;
20721;SDS011;10522;52.198;9.890;2023-11-21T09:55:44;17.20;;;9.73;;
20721;SDS011;10522;52.198;9.890;2023-11-21T09:58:11;12.70;;;8.37;;
20721;SDS011;10522;52.198;9.890;2023-11-21T10:00:42;17.23;;;9.00;;
20721;SDS011;10522;52.198;9.890;2023-11-21T10:03:12;14.70;;;8.87;;
20721;SDS011;10522;52.198;9.890;2023-11-21T10:05:39;17.17;;;9.30;;
20721;SDS011;10522;52.198;9.890;2023-11-21T10:08:10;15.37;;;8.70;;
20721;SDS011;10522;52.198;9.890;2023-11-21T10:10:36;16.70;;;8.43;;
20721;SDS011;10522;52.198;9.890;2023-11-21T10:13:04;16.77;;;8.37;;
20721;SDS011;10522;52.198;9.890;2023-11-21T10:15:35;11.60;;;7.73;;
20721;SDS011;10522;52.198;9.890;2023-11-21T10:18:02;13.20;;;7.53;;
20721;SDS011;10522;52.198;9.890;2023-11-21T10:20:34;14.67;;;8.43;;
20721;SDS011;10522;52.198;9.890;2023-11-21T10:23:02;13.63;;;8.00;;
20721;SDS011;10522;52.198;9.890;2023-11-21T10:25:28;10.83;;;6.63;;
20721;SDS011;10522;52.198;9.890;2023-11-21T10:27:58;12.50;;;7.67;;
20721;SDS011;10522;52.198;9.890;2023-11-21T10:30:36;10.10;;;6.97;;
20721;SDS011;10522;52.198;9.890;2023-11-21T10:33:03;9.93;;;6.53;;
20721;SDS011;10522;52.198;9.890;2023-11-21T10:35:42;8.63;;;6.57;;
20721;SDS011;10522;52.198;9.890;2023-11-21T10:38:11;9.77;;;6.07;;
20721;SDS011;10522;52.198;9.890;2023-11-21T10:40:40;12.00;;;7.13;;
20721;SDS011;10522;52.198;9.890;2023-11-21T10:43:07;11.80;;;6.80;;
20721;SDS011;10522;52.198;9.890;2023-11-21T10:45:34;10.70;;;6.67;;
20721;SDS011;10522;52.198;9.890;2023-11-21T10:48:04;9.67;;;7.03;;
20721;SDS011;10522;52.198;9.890;2023-11-21T10:50:35;12.97;;;6.47;;
20721;SDS011;10522;52.198;9.890;2023-11-21T10:53:05;11.50;;;6.83;;
20721;SDS011;10522;52.198;9.890;2023-11-21T10:55:33;9.70;;;6.57;;
20721;SDS011;10522;52.198;9.890;2023-11-21T10:58:00;13.83;;;6.60;;
20721;SDS011;10522;52.198;9.890;2023-11-21T11:00:28;10.80;;;6.20;;
20721;SDS011;10522;52.198;9.890;2023-11-21T11:02:54;8.50;;;5.87;;
20721;SDS011;10522;52.198;9.890;2023-11-21T11:05:21;10.43;;;6.33;;
20721;SDS011;10522;52.198;9.890;2023-11-21T11:07:52;9.07;;;5.37;;
20721;SDS011;10522;52.198;9.890;2023-11-21T11:10:26;9.20;;;5.97;;
20721;SDS011;10522;52.198;9.890;2023-11-21T11:12:54;10.00;;;5.23;;
20721;SDS011;10522;52.198;9.890;2023-11-21T11:15:20;9.77;;;5.90;;
20721;SDS011;10522;52.198;9.890;2023-11-21T11:17:46;9.37;;;5.77;;
20721;SDS011;10522;52.198;9.890;2023-11-21T11:20:14;7.20;;;4.90;;
20721;SDS011;10522;52.198;9.890;2023-11-21T11:22:54;6.83;;;4.90;;
20721;SDS011;10522;52.198;9.890;2023-11-21T11:26:01;8.73;;;5.83;;
20721;SDS011;10522;52.198;9.890;2023-11-21T11:34:23;8.23;;;5.53;;
20721;SDS011;10522;52.198;9.890;2023-11-21T11:39:36;9.27;;;5.00;;
20721;SDS011;10522;52.198;9.890;2023-11-21T11:42:05;9.97;;;6.03;;
20721;SDS011;10522;52.198;9.890;2023-11-21T11:50:12;8.47;;;5.47;;
20721;SDS011;10522;52.198;9.890;2023-11-21T11:52:49;11.23;;;6.70;;
20721;SDS011;10522;52.198;9.890;2023-11-21T11:55:17;8.23;;;5.47;;
20721;SDS011;10522;52.198;9.890;2023-11-21T11:57:45;10.17;;;5.60;;
20721;SDS011;10522;52.198;9.890;2023-11-21T12:00:13;9.73;;;5.70;;
20721;SDS011;10522;52.198;9.890;2023-11-21T12:02:48;8.77;;;5.70;;
20721;SDS011;10522;52.198;9.890;2023-11-21T12:05:15;8.73;;;5.70;;
20721;SDS011;10522;52.198;9.890;2023-11-21T12:07:46;10.20;;;6.27;;
20721;SDS011;10522;52.198;9.890;2023-11-21T12:10:14;9.13;;;5.27;;
20721;SDS011;10522;52.198;9.890;2023-11-21T12:12:49;8.60;;;5.93;;
20721;SDS011;10522;52.198;9.890;2023-11-21T12:15:17;7.23;;;5.47;;
20721;SDS011;10522;52.198;9.890;2023-11-21T12:17:44;6.93;;;4.93;;
20721;SDS011;10522;52.198;9.890;2023-11-21T12:20:14;8.30;;;5.43;;
20721;SDS011;10522;52.198;9.890;2023-11-21T12:22:52;9.17;;;5.23;;
20721;SDS011;10522;52.198;9.890;2023-11-21T12:25:25;8.37;;;5.80;;
20721;SDS011;10522;52.198;9.890;2023-11-21T12:27:54;9.03;;;5.00;;
20721;SDS011;10522;52.198;9.890;2023-11-21T12:30:22;8.93;;;5.63;;
20721;SDS011;10522;52.198;9.890;2023-11-21T12:32:49;8.43;;;5.17;;
20721;SDS011;10522;52.198;9.890;2023-11-21T12:35:17;7.73;;;5.50;;
20721;SDS011;10522;52.198;9.890;2023-11-21T12:37:47;8.73;;;5.37;;
20721;SDS011;10522;52.198;9.890;2023-11-21T12:40:14;7.70;;;5.10;;
20721;SDS011;10522;52.198;9.890;2023-11-21T12:42:41;9.77;;;4.90;;
20721;SDS011;10522;52.198;9.890;2023-11-21T12:48:24;8.97;;;4.77;;
20721;SDS011;10522;52.198;9.890;2023-11-21T12:50:36;7.90;;;5.37;;
20721;SDS011;10522;52.198;9.890;2023-11-21T12:53:04;7.80;;;4.20;;
20721;SDS011;10522;52.198;9.890;2023-11-21T12:55:33;8.93;;;5.33;;
20721;SDS011;10522;52.198;9.890;2023-11-21T12:58:03;9.57;;;5.07;;
20721;SDS011;10522;52.198;9.890;2023-11-21T13:00:56;7.73;;;4.87;;
20721;SDS011;10522;52.198;9.890;2023-11-21T13:03:24;8.10;;;4.83;;
20721;SDS011;10522;52.198;9.890;2023-11-21T13:05:51;8.30;;;5.20;;
20721;SDS011;10522;52.198;9.890;2023-11-21T13:08:24;7.60;;;4.80;;
20721;SDS011;10522;52.198;9.890;2023-11-21T13:10:52;8.43;;;5.20;;
20721;SDS011;10522;52.198;9.890;2023-11-21T13:13:21;6.27;;;4.70;;
20721;SDS011;10522;52.198;9.890;2023-11-21T13:18:16;6.90;;;5.00;;
20721;SDS011;10522;52.198;9.890;2023-11-21T13:20:42;7.20;;;5.30;;
20721;SDS011;10522;52.198;9.890;2023-11-21T13:23:08;7.67;;;4.43;;
20721;SDS011;10522;52.198;9.890;2023-11-21T13:25:37;9.67;;;4.20;;
20721;SDS011;10522;52.198;9.890;2023-11-21T13:28:05;4.87;;;3.93;;
20721;SDS011;10522;52.198;9.890;2023-11-21T13:30:32;8.30;;;4.03;;
20721;SDS011;10522;52.198;9.890;2023-11-21T13:33:04;5.27;;;3.90;;
20721;SDS011;10522;52.198;9.890;2023-11-21T13:35:33;6.40;;;3.43;;
20721;SDS011;10522;52.198;9.890;2023-11-21T13:38:06;6.57;;;3.57;;
20721;SDS011;10522;52.198;9.890;2023-11-21T13:40:37;8.60;;;4.33;;
20721;SDS011;10522;52.198;9.890;2023-11-21T13:43:11;5.97;;;3.97;;
20721;SDS011;10522;52.198;9.890;2023-11-21T13:45:41;6.83;;;3.70;;
20721;SDS011;10522;52.198;9.890;2023-11-21T13:48:08;7.70;;;4.50;;
20721;SDS011;10522;52.198;9.890;2023-11-21T13:50:39;5.37;;;3.67;;
20721;SDS011;10522;52.198;9.890;2023-11-21T13:53:11;6.93;;;4.10;;
20721;SDS011;10522;52.198;9.890;2023-11-21T13:55:47;6.50;;;4.40;;
20721;SDS011;10522;52.198;9.890;2023-11-21T13:58:14;9.47;;;4.83;;
20721;SDS011;10522;52.198;9.890;2023-11-21T14:00:47;14.23;;;6.30;;
20721;SDS011;10522;52.198;9.890;2023-11-21T14:03:20;13.27;;;6.70;;
20721;SDS011;10522;52.198;9.890;2023-11-21T14:05:47;12.73;;;6.03;;
20721;SDS011;10522;52.198;9.890;2023-11-21T14:08:17;7.77;;;5.60;;
20721;SDS011;10522;52.198;9.890;2023-11-21T14:10:49;9.50;;;5.37;;
20721;SDS011;10522;52.198;9.890;2023-11-21T14:13:20;7.63;;;5.13;;
20721;SDS011;10522;52.198;9.890;2023-11-21T14:15:48;8.03;;;4.63;;
20721;SDS011;10522;52.198;9.890;2023-11-21T14:18:18;8.10;;;4.53;;
20721;SDS011;10522;52.198;9.890;2023-11-21T14:20:52;5.27;;;3.90;;
20721;SDS011;10522;52.198;9.890;2023-11-21T14:23:18;5.37;;;4.00;;
20721;SDS011;10522;52.198;9.890;2023-11-21T14:25:43;5.13;;;3.83;;
20721;SDS011;10522;52.198;9.890;2023-11-21T14:28:09;5.23;;;3.83;;
20721;SDS011;10522;52.198;9.890;2023-11-21T14:30:37;4.60;;;3.60;;
20721;SDS011;10522;52.198;9.890;2023-11-21T14:33:04;8.67;;;4.10;;
20721;SDS011;10522;52.198;9.890;2023-11-21T14:35:31;6.40;;;4.43;;
20721;SDS011;10522;52.198;9.890;2023-11-21T14:37:58;5.13;;;3.67;;
20721;SDS011;10522;52.198;9.890;2023-11-21T14:40:25;5.70;;;3.23;;
20721;SDS011;10522;52.198;9.890;2023-11-21T14:42:52;5.67;;;3.83;;
20721;SDS011;10522;52.198;9.890;2023-11-21T14:45:19;5.50;;;3.77;;
20721;SDS011;10522;52.198;9.890;2023-11-21T14:47:46;7.03;;;3.80;;
20721;SDS011;10522;52.198;9.890;2023-11-21T14:50:21;7.47;;;4.10;;
20721;SDS011;10522;52.198;9.890;2023-11-21T14:53:10;4.60;;;3.37;;